createdAt,value
2022-08-24T00:02:07.602Z,22.90
2022-08-24T00:04:38.908Z,22.90
2022-08-24T00:07:13.858Z,22.90
2022-08-24T00:09:53.135Z,22.90
2022-08-24T00:12:19.988Z,22.90
2022-08-24T00:14:46.599Z,22.90
2022-08-24T00:17:13.221Z,22.90
2022-08-24T00:19:40.064Z,22.90
2022-08-24T00:22:06.692Z,22.90
2022-08-24T00:24:33.896Z,22.90
2022-08-24T00:29:27.595Z,22.80
2022-08-24T00:31:54.712Z,22.80
2022-08-24T00:34:21.673Z,22.80
2022-08-24T00:36:48.295Z,22.80
2022-08-24T00:39:15.207Z,23.00
2022-08-24T00:41:48.397Z,22.80
2022-08-24T00:44:16.813Z,22.80
2022-08-24T00:46:51.895Z,22.80
2022-08-24T00:49:48.556Z,22.80
2022-08-24T00:52:20.096Z,22.80
2022-08-24T00:54:52.427Z,22.80
2022-08-24T00:57:22.496Z,22.80
2022-08-24T00:59:54.401Z,22.80
2022-08-24T01:02:25.910Z,22.80
2022-08-24T01:04:56.230Z,22.70
2022-08-24T01:07:25.547Z,22.80
2022-08-24T01:09:55.795Z,22.70
2022-08-24T01:12:24.412Z,22.70
2022-08-24T01:14:51.160Z,22.70
2022-08-24T01:17:38.825Z,22.70
2022-08-24T01:20:07.579Z,22.70
2022-08-24T01:22:53.432Z,22.60
2022-08-24T01:25:22.132Z,22.60
2022-08-24T01:27:51.659Z,22.60
2022-08-24T01:30:30.388Z,22.60
2022-08-24T01:33:07.061Z,22.60
2022-08-24T01:35:36.471Z,22.60
2022-08-24T01:38:08.275Z,22.60
2022-08-24T01:40:47.263Z,22.60
2022-08-24T01:43:15.008Z,22.60
2022-08-24T01:45:42.853Z,22.60
2022-08-24T01:48:09.528Z,22.60
2022-08-24T01:50:36.194Z,22.60
2022-08-24T01:56:50.445Z,22.50
2022-08-24T01:59:17.631Z,22.50
2022-08-24T02:01:49.684Z,22.60
2022-08-24T02:04:17.802Z,22.50
2022-08-24T02:06:45.669Z,22.50
2022-08-24T02:09:13.071Z,22.60
2022-08-24T02:11:41.554Z,22.50
2022-08-24T02:14:08.177Z,22.50
2022-08-24T02:16:34.759Z,22.50
2022-08-24T02:19:01.336Z,22.50
2022-08-24T02:21:28.088Z,22.50
2022-08-24T02:23:54.803Z,22.50
2022-08-24T02:26:21.583Z,22.50
2022-08-24T02:28:48.375Z,22.50
2022-08-24T02:31:15.312Z,22.50
2022-08-24T02:33:42.223Z,22.50
2022-08-24T02:36:21.878Z,22.50
2022-08-24T02:38:54.318Z,22.40
2022-08-24T02:41:21.899Z,22.40
2022-08-24T02:43:48.465Z,22.40
2022-08-24T02:46:23.941Z,22.40
2022-08-24T02:48:58.081Z,22.30
2022-08-24T02:51:44.100Z,22.40
2022-08-24T02:54:13.664Z,22.40
2022-08-24T02:56:40.264Z,22.30
2022-08-24T02:59:06.938Z,22.40
2022-08-24T03:01:33.652Z,22.30
2022-08-24T03:04:00.406Z,22.30
2022-08-24T03:06:27.226Z,22.30
2022-08-24T03:08:56.542Z,22.30
2022-08-24T03:11:27.575Z,22.30
2022-08-24T03:13:55.317Z,22.20
2022-08-24T03:16:22.025Z,22.30
2022-08-24T03:18:48.640Z,22.30
2022-08-24T03:21:16.155Z,22.20
2022-08-24T03:23:43.043Z,22.20
2022-08-24T03:26:20.353Z,22.20
2022-08-24T03:28:47.059Z,22.20
2022-08-24T03:31:16.877Z,22.30
2022-08-24T03:33:43.697Z,22.20
2022-08-24T03:36:14.055Z,22.20
2022-08-24T03:38:41.385Z,22.20
2022-08-24T03:41:08.067Z,22.20
2022-08-24T03:43:46.657Z,22.20
2022-08-24T03:46:16.704Z,22.20
2022-08-24T03:48:44.331Z,22.10
2022-08-24T03:51:12.839Z,22.10
2022-08-24T03:53:42.936Z,22.10
2022-08-24T03:56:11.035Z,22.10
2022-08-24T03:58:38.951Z,22.10
2022-08-24T04:01:06.291Z,22.10
2022-08-24T04:03:44.044Z,22.10
2022-08-24T04:06:12.113Z,22.10
2022-08-24T04:08:40.086Z,22.10
2022-08-24T04:11:10.673Z,22.10
2022-08-24T04:13:37.375Z,21.80
2022-08-24T04:16:09.573Z,21.20
2022-08-24T04:18:36.530Z,20.90
2022-08-24T04:21:04.585Z,20.60
2022-08-24T04:23:41.233Z,20.40
2022-08-24T04:26:14.940Z,20.30
2022-08-24T04:28:41.579Z,20.20
2022-08-24T04:31:08.363Z,20.10
2022-08-24T04:33:35.285Z,20.30
2022-08-24T04:36:02.753Z,20.30
2022-08-24T04:38:30.057Z,20.20
2022-08-24T04:40:56.653Z,20.20
2022-08-24T04:43:27.041Z,20.00
2022-08-24T04:45:53.689Z,20.10
2022-08-24T04:48:20.377Z,20.00
2022-08-24T04:50:47.089Z,19.80
2022-08-24T04:53:14.236Z,19.70
2022-08-24T04:55:46.532Z,19.80
2022-08-24T04:58:14.593Z,19.80
2022-08-24T05:00:41.558Z,19.80
2022-08-24T05:03:08.555Z,20.20
2022-08-24T05:05:35.285Z,20.60
2022-08-24T05:08:02.604Z,20.90
2022-08-24T05:10:33.711Z,21.10
2022-08-24T05:13:00.615Z,21.10
2022-08-24T05:15:27.317Z,21.20
2022-08-24T05:17:53.885Z,21.30
2022-08-24T05:20:20.546Z,21.30
2022-08-24T05:22:47.156Z,21.40
2022-08-24T05:25:13.841Z,21.40
2022-08-24T05:27:40.480Z,21.40
2022-08-24T05:30:07.603Z,21.40
2022-08-24T05:32:34.164Z,21.40
2022-08-24T05:35:01.450Z,21.50
2022-08-24T05:37:28.104Z,21.60
2022-08-24T05:39:54.780Z,21.50
2022-08-24T05:42:21.463Z,21.50
2022-08-24T05:44:48.108Z,21.60
2022-08-24T05:47:14.660Z,21.60
2022-08-24T05:49:41.850Z,21.60
2022-08-24T05:52:08.773Z,21.60
2022-08-24T05:54:35.353Z,21.60
2022-08-24T05:57:04.745Z,21.70
2022-08-24T05:59:31.932Z,21.70
2022-08-24T06:01:58.648Z,21.50
2022-08-24T06:04:26.378Z,21.20
2022-08-24T06:06:53.005Z,21.20
2022-08-24T06:09:19.659Z,21.10
2022-08-24T06:11:47.435Z,21.20
2022-08-24T06:14:16.609Z,21.10
2022-08-24T06:16:46.745Z,21.10
2022-08-24T06:19:30.836Z,21.20
2022-08-24T06:21:57.456Z,21.20
2022-08-24T06:24:44.849Z,21.20
2022-08-24T06:27:22.538Z,21.30
2022-08-24T06:29:58.139Z,21.30
2022-08-24T06:32:25.589Z,21.40
2022-08-24T06:34:56.821Z,21.40
2022-08-24T06:37:26.520Z,21.50
2022-08-24T06:39:57.282Z,21.50
2022-08-24T06:42:29.132Z,21.50
2022-08-24T06:44:55.761Z,21.60
2022-08-24T06:47:22.500Z,21.70
2022-08-24T06:49:49.320Z,21.70
2022-08-24T06:52:16.212Z,21.80
2022-08-24T06:54:42.988Z,21.90
2022-08-24T06:57:09.548Z,21.90
2022-08-24T06:59:36.296Z,22.00
2022-08-24T07:02:02.984Z,22.10
2022-08-24T07:04:29.694Z,22.10
2022-08-24T07:06:56.391Z,22.20
2022-08-24T07:09:27.261Z,22.30
2022-08-24T07:11:53.897Z,22.40
2022-08-24T07:14:21.571Z,22.40
2022-08-24T07:16:48.373Z,22.40
2022-08-24T07:19:14.995Z,22.40
2022-08-24T07:21:42.452Z,22.40
2022-08-24T07:24:10.566Z,22.50
2022-08-24T07:26:38.750Z,22.60
2022-08-24T07:29:30.366Z,22.60
2022-08-24T07:31:57.199Z,22.60
2022-08-24T07:34:23.895Z,22.60
2022-08-24T07:36:52.200Z,22.60
2022-08-24T07:39:18.828Z,22.70
2022-08-24T07:44:32.288Z,22.70
2022-08-24T07:47:10.522Z,22.80
2022-08-24T07:49:47.716Z,22.80
2022-08-24T07:52:15.140Z,22.80
2022-08-24T07:54:41.988Z,22.90
2022-08-24T07:57:08.915Z,23.00
2022-08-24T07:59:36.581Z,23.00
2022-08-24T08:02:05.096Z,23.10
2022-08-24T08:04:31.814Z,23.10
2022-08-24T08:07:00.692Z,23.10
2022-08-24T08:09:28.241Z,23.20
2022-08-24T08:11:55.043Z,23.00
2022-08-24T08:14:21.675Z,23.00
2022-08-24T08:16:48.238Z,23.00
2022-08-24T08:19:14.878Z,23.00
2022-08-24T08:22:05.455Z,23.00
2022-08-24T08:24:32.185Z,23.10
2022-08-24T08:26:59.180Z,23.00
2022-08-24T08:29:26.180Z,23.10
2022-08-24T08:31:53.413Z,23.10
2022-08-24T08:34:20.445Z,23.10
2022-08-24T08:36:47.362Z,23.20
2022-08-24T08:39:15.820Z,23.20
2022-08-24T08:42:14.953Z,23.20
2022-08-24T08:44:50.434Z,23.20
2022-08-24T08:47:26.305Z,23.20
2022-08-24T08:50:21.883Z,23.20
2022-08-24T08:53:07.337Z,23.30
2022-08-24T08:55:41.332Z,23.20
2022-08-24T08:58:51.069Z,23.20
2022-08-24T09:01:46.461Z,23.30
2022-08-24T09:04:35.196Z,23.30
2022-08-24T09:07:17.160Z,23.30
2022-08-24T09:10:02.322Z,23.30
2022-08-24T09:12:47.454Z,23.30
2022-08-24T09:16:10.873Z,23.30
2022-08-24T09:18:56.218Z,23.30
2022-08-24T09:21:46.997Z,23.40
2022-08-24T09:24:40.041Z,23.30
2022-08-24T09:27:52.114Z,23.40
2022-08-24T09:30:27.730Z,23.40
2022-08-24T09:32:58.958Z,23.40
2022-08-24T09:36:02.788Z,23.40
2022-08-24T09:39:03.773Z,23.40
2022-08-24T09:41:57.736Z,23.50
2022-08-24T09:44:32.908Z,23.50
2022-08-24T09:47:17.815Z,23.50
2022-08-24T09:49:47.318Z,23.50
2022-08-24T09:52:51.163Z,23.50
2022-08-24T09:55:39.210Z,23.60
2022-08-24T09:58:20.790Z,23.50
2022-08-24T10:01:16.163Z,23.60
2022-08-24T10:04:00.762Z,23.60
2022-08-24T10:06:48.587Z,23.60
2022-08-24T10:10:07.484Z,23.60
2022-08-24T10:12:47.749Z,23.60
2022-08-24T10:15:30.218Z,23.60
2022-08-24T10:18:23.692Z,23.60
2022-08-24T10:21:20.513Z,23.50
2022-08-24T10:23:49.824Z,23.50
2022-08-24T10:26:23.470Z,23.50
2022-08-24T10:29:18.268Z,23.50
2022-08-24T10:31:48.533Z,23.50
2022-08-24T10:34:54.386Z,23.60
2022-08-24T10:37:20.904Z,23.60
2022-08-24T10:40:18.334Z,23.60
2022-08-24T10:43:26.174Z,23.60
2022-08-24T10:46:20.782Z,23.60
2022-08-24T10:49:24.843Z,23.60
2022-08-24T10:52:42.441Z,23.60
2022-08-24T10:55:35.511Z,23.60
2022-08-24T10:58:23.759Z,23.70
2022-08-24T11:00:50.701Z,23.80
2022-08-24T11:03:21.389Z,23.80
2022-08-24T11:05:56.647Z,23.80
2022-08-24T11:08:33.303Z,23.80
2022-08-24T11:11:10.597Z,23.90
2022-08-24T11:13:50.301Z,23.90
2022-08-24T11:16:25.800Z,23.80
2022-08-24T11:18:55.789Z,23.90
2022-08-24T11:21:37.092Z,23.90
2022-08-24T11:24:13.558Z,23.90
2022-08-24T11:27:09.076Z,23.90
2022-08-24T11:29:53.370Z,23.90
2022-08-24T11:32:43.315Z,23.90
2022-08-24T11:35:21.110Z,23.90
2022-08-24T11:37:49.677Z,23.90
2022-08-24T11:40:18.623Z,23.90
2022-08-24T11:43:06.181Z,24.00
2022-08-24T11:46:18.081Z,23.90
2022-08-24T11:49:20.663Z,24.00
2022-08-24T11:52:00.483Z,24.00
2022-08-24T11:54:52.477Z,24.00
2022-08-24T11:57:35.097Z,24.00
2022-08-24T12:00:21.221Z,23.90
2022-08-24T12:03:04.977Z,23.80
2022-08-24T12:05:44.716Z,23.80
2022-08-24T12:08:14.320Z,23.70
2022-08-24T12:10:53.049Z,23.70
2022-08-24T12:13:52.997Z,23.70
2022-08-24T12:16:40.778Z,23.70
2022-08-24T12:19:19.762Z,23.70
2022-08-24T12:21:50.725Z,23.70
2022-08-24T12:24:31.769Z,23.70
2022-08-24T12:27:25.927Z,23.70
2022-08-24T12:30:16.376Z,23.70
2022-08-24T12:32:52.265Z,23.70
2022-08-24T12:35:37.867Z,23.70
2022-08-24T12:38:13.309Z,23.70
2022-08-24T12:40:56.345Z,23.70
2022-08-24T12:43:39.687Z,23.70
2022-08-24T12:46:06.817Z,23.70
2022-08-24T12:48:45.006Z,23.70
2022-08-24T12:51:51.508Z,23.70
2022-08-24T12:54:42.461Z,23.80
2022-08-24T12:57:51.829Z,23.80
2022-08-24T13:00:36.798Z,23.80
2022-08-24T13:03:06.768Z,23.80
2022-08-24T13:05:46.477Z,23.80
2022-08-24T13:08:20.816Z,23.80
2022-08-24T13:11:16.853Z,23.70
2022-08-24T13:13:54.276Z,23.70
2022-08-24T13:16:57.943Z,23.80
2022-08-24T13:19:30.903Z,23.80
2022-08-24T13:22:09.829Z,23.80
2022-08-24T13:24:38.392Z,23.80
2022-08-24T13:27:13.830Z,23.80
2022-08-24T13:29:44.679Z,23.80
2022-08-24T13:32:35.179Z,23.90
2022-08-24T13:35:40.001Z,23.90
2022-08-24T13:38:25.606Z,23.80
2022-08-24T13:41:00.881Z,23.80
2022-08-24T13:43:37.481Z,23.80
2022-08-24T13:46:22.918Z,23.70
2022-08-24T13:48:58.534Z,23.70
2022-08-24T13:51:45.361Z,23.70
2022-08-24T13:54:34.086Z,23.80
2022-08-24T13:57:06.423Z,23.80
2022-08-24T14:00:12.659Z,23.70
2022-08-24T14:03:04.141Z,23.80
2022-08-24T14:05:40.006Z,23.70
2022-08-24T14:08:34.985Z,23.80
2022-08-24T14:11:29.488Z,23.80
2022-08-24T14:14:05.185Z,23.70
2022-08-24T14:17:25.845Z,23.80
2022-08-24T14:20:28.640Z,23.80
2022-08-24T14:23:09.922Z,23.80
2022-08-24T14:25:37.911Z,23.90
2022-08-24T14:28:04.677Z,23.80
2022-08-24T14:30:31.343Z,23.80
2022-08-24T14:33:00.795Z,23.80
2022-08-24T14:35:36.232Z,23.80
2022-08-24T14:38:14.843Z,23.80
2022-08-24T14:40:51.333Z,23.80
2022-08-24T14:43:38.995Z,23.80
2022-08-24T14:46:10.604Z,23.80
2022-08-24T14:48:46.966Z,23.90
2022-08-24T14:51:32.096Z,23.80
2022-08-24T14:54:35.945Z,23.80
2022-08-24T14:57:48.661Z,23.90
2022-08-24T15:00:17.988Z,23.90
2022-08-24T15:03:19.828Z,23.90
2022-08-24T15:06:25.701Z,23.90
2022-08-24T15:08:50.128Z,23.90
2022-08-24T15:11:29.365Z,23.90
2022-08-24T15:14:03.539Z,23.90
2022-08-24T15:16:30.095Z,23.90
2022-08-24T15:19:02.622Z,23.80
2022-08-24T15:21:55.008Z,23.80
2022-08-24T15:24:41.275Z,23.80
2022-08-24T15:27:39.446Z,23.80
2022-08-24T15:30:07.731Z,23.80
2022-08-24T15:32:48.892Z,23.80
2022-08-24T15:35:32.346Z,23.80
2022-08-24T15:38:35.949Z,23.80
2022-08-24T15:41:14.760Z,23.80
2022-08-24T15:43:56.603Z,23.80
2022-08-24T15:46:28.940Z,23.80
2022-08-24T15:49:04.275Z,23.80
2022-08-24T15:51:43.016Z,23.80
2022-08-24T15:54:25.330Z,23.90
2022-08-24T15:56:55.849Z,23.90
2022-08-24T15:59:29.094Z,23.80
2022-08-24T16:02:25.771Z,23.90
2022-08-24T16:05:00.660Z,23.90
2022-08-24T16:07:34.593Z,23.80
2022-08-24T16:10:09.077Z,23.90
2022-08-24T16:12:36.228Z,23.90
2022-08-24T16:15:17.086Z,23.90
2022-08-24T16:17:51.443Z,23.80
2022-08-24T16:20:24.087Z,23.80
2022-08-24T16:23:00.560Z,23.80
2022-08-24T16:25:31.807Z,23.80
2022-08-24T16:28:21.903Z,23.80
2022-08-24T16:30:56.378Z,23.90
2022-08-24T16:33:39.228Z,23.80
2022-08-24T16:36:13.707Z,23.90
2022-08-24T16:38:46.858Z,23.90
2022-08-24T16:41:17.401Z,23.90
2022-08-24T16:43:45.718Z,23.90
2022-08-24T16:46:13.432Z,23.90
2022-08-24T16:48:40.405Z,23.90
2022-08-24T16:51:07.292Z,23.90
2022-08-24T16:53:33.867Z,24.00
2022-08-24T16:56:00.643Z,23.90
2022-08-24T16:58:32.887Z,23.90
2022-08-24T17:01:00.005Z,23.90
2022-08-24T17:03:27.144Z,23.90
2022-08-24T17:05:54.785Z,23.90
2022-08-24T17:08:21.352Z,23.90
2022-08-24T17:10:47.948Z,23.90
2022-08-24T17:13:27.866Z,23.90
2022-08-24T17:16:01.273Z,23.90
2022-08-24T17:18:28.417Z,23.90
2022-08-24T17:20:57.420Z,23.90
2022-08-24T17:23:24.074Z,23.90
2022-08-24T17:25:51.105Z,23.90
2022-08-24T17:28:20.654Z,23.90
2022-08-24T17:30:51.348Z,23.90
2022-08-24T17:33:18.521Z,23.90
2022-08-24T17:35:45.306Z,23.90
2022-08-24T17:38:12.005Z,23.90
2022-08-24T17:40:38.633Z,23.90
2022-08-24T17:43:05.421Z,23.90
2022-08-24T17:45:32.240Z,23.90
2022-08-24T17:47:58.877Z,23.90
2022-08-24T17:50:26.614Z,23.90
2022-08-24T17:52:58.831Z,23.90
2022-08-24T17:55:27.164Z,23.90
2022-08-24T17:57:53.958Z,23.90
2022-08-24T18:00:20.662Z,23.90
2022-08-24T18:02:47.212Z,23.90
2022-08-24T18:05:14.811Z,23.90
2022-08-24T18:07:55.619Z,23.90
2022-08-24T18:10:26.022Z,23.90
2022-08-24T18:12:53.166Z,23.90
2022-08-24T18:15:20.203Z,23.90
2022-08-24T18:17:49.240Z,23.90
2022-08-24T18:20:20.912Z,23.90
2022-08-24T18:22:47.921Z,23.90
2022-08-24T18:25:20.900Z,23.90
2022-08-24T18:27:48.069Z,24.00
2022-08-24T18:30:33.022Z,23.90
2022-08-24T18:33:01.717Z,24.00
2022-08-24T18:35:30.549Z,24.00
2022-08-24T18:37:57.247Z,23.90
2022-08-24T18:40:26.657Z,24.00
2022-08-24T18:42:59.584Z,24.00
2022-08-24T18:45:31.168Z,24.00
2022-08-24T18:47:58.147Z,23.90
2022-08-24T18:50:24.773Z,24.00
2022-08-24T18:52:51.413Z,23.90
2022-08-24T18:55:18.182Z,23.90
2022-08-24T18:57:45.258Z,23.90
2022-08-24T19:00:12.887Z,23.90
2022-08-24T19:02:40.568Z,23.90
2022-08-24T19:05:12.701Z,23.90
2022-08-24T19:07:45.195Z,23.90
2022-08-24T19:10:15.344Z,23.90
2022-08-24T19:12:46.878Z,23.90
2022-08-24T19:15:35.688Z,24.00
2022-08-24T19:18:01.610Z,24.00
2022-08-24T19:20:28.397Z,24.00
2022-08-24T19:23:04.948Z,24.00
2022-08-24T19:25:32.238Z,24.10
2022-08-24T19:27:58.862Z,24.00
2022-08-24T19:30:27.907Z,24.00
2022-08-24T19:32:56.383Z,24.00
2022-08-24T19:35:23.099Z,24.00
2022-08-24T19:37:50.238Z,24.10
2022-08-24T19:40:18.137Z,24.00
2022-08-24T19:42:49.597Z,24.10
2022-08-24T19:45:40.307Z,24.10
2022-08-24T19:48:06.944Z,24.10
2022-08-24T19:50:35.978Z,24.00
2022-08-24T19:53:04.263Z,24.00
2022-08-24T19:55:31.289Z,24.00
2022-08-24T19:58:09.179Z,24.00
2022-08-24T20:00:41.440Z,24.00
2022-08-24T20:03:15.050Z,24.00
2022-08-24T20:05:41.836Z,24.10
2022-08-24T20:08:10.601Z,24.10
2022-08-24T20:10:38.043Z,24.10
2022-08-24T20:13:04.899Z,24.10
2022-08-24T20:15:32.851Z,24.10
2022-08-24T20:17:59.875Z,24.00
2022-08-24T20:20:27.831Z,24.00
2022-08-24T20:22:54.962Z,24.00
2022-08-24T20:25:21.691Z,24.00
2022-08-24T20:27:52.416Z,23.90
2022-08-24T20:30:24.881Z,23.90
2022-08-24T20:32:51.698Z,24.00
2022-08-24T20:35:18.461Z,23.90
2022-08-24T20:37:45.648Z,23.90
2022-08-24T20:40:16.364Z,23.90
2022-08-24T20:42:43.259Z,23.90
2022-08-24T20:45:11.258Z,23.80
2022-08-24T20:47:51.130Z,24.00
2022-08-24T20:50:21.000Z,23.90
2022-08-24T20:52:50.949Z,24.00
2022-08-24T20:55:18.456Z,24.00
2022-08-24T20:57:51.648Z,24.00
2022-08-24T21:00:21.183Z,23.90
2022-08-24T21:02:48.203Z,23.90
2022-08-24T21:05:14.870Z,23.90
2022-08-24T21:07:47.680Z,23.90
2022-08-24T21:10:14.270Z,23.90
2022-08-24T21:12:40.839Z,23.90
2022-08-24T21:15:13.163Z,22.80
2022-08-24T21:17:41.000Z,23.90
2022-08-24T21:20:08.730Z,23.90
2022-08-24T21:22:38.386Z,23.90
2022-08-24T21:25:07.175Z,23.90
2022-08-24T21:27:38.295Z,23.90
2022-08-24T21:30:06.827Z,23.90
2022-08-24T21:32:52.210Z,23.90
2022-08-24T21:35:18.936Z,23.90
2022-08-24T21:37:46.073Z,23.90
2022-08-24T21:40:13.054Z,23.90
2022-08-24T21:42:39.844Z,23.90
2022-08-24T21:45:07.917Z,23.80
2022-08-24T21:47:34.607Z,23.80
2022-08-24T21:50:01.178Z,23.80
2022-08-24T21:52:27.780Z,23.80
2022-08-24T21:54:54.980Z,23.80
2022-08-24T21:57:21.952Z,23.80
2022-08-24T21:59:48.839Z,23.80
2022-08-24T22:02:16.785Z,23.70
2022-08-24T22:04:45.109Z,23.80
2022-08-24T22:07:12.265Z,23.80
2022-08-24T22:09:40.208Z,23.80
2022-08-24T22:12:07.700Z,23.80
2022-08-24T22:14:34.947Z,23.80
2022-08-24T22:17:02.348Z,23.70
2022-08-24T22:19:28.948Z,23.70
2022-08-24T22:21:55.732Z,23.70
2022-08-24T22:24:22.305Z,23.70
2022-08-24T22:26:49.154Z,23.70
2022-08-24T22:29:16.014Z,23.70
2022-08-24T22:31:43.784Z,23.70
2022-08-24T22:34:19.599Z,23.70
2022-08-24T22:36:48.607Z,23.70
2022-08-24T22:39:15.673Z,23.70
2022-08-24T22:41:42.377Z,23.70
2022-08-24T22:44:21.472Z,23.70
2022-08-24T22:46:49.397Z,23.70
2022-08-24T22:49:16.681Z,23.70
2022-08-24T22:51:43.484Z,23.70
2022-08-24T22:54:10.421Z,23.70
2022-08-24T22:56:43.656Z,23.70
2022-08-24T22:59:17.581Z,23.70
2022-08-24T23:01:45.728Z,23.70
2022-08-24T23:04:16.869Z,23.70
2022-08-24T23:06:43.761Z,23.70
2022-08-24T23:09:11.402Z,23.70
2022-08-24T23:11:38.555Z,23.70
2022-08-24T23:14:06.893Z,23.70
2022-08-24T23:16:35.871Z,23.70
2022-08-24T23:19:21.583Z,23.60
2022-08-24T23:21:48.702Z,23.60
2022-08-24T23:24:15.381Z,23.60
2022-08-24T23:26:43.228Z,23.60
2022-08-24T23:29:12.602Z,23.60
2022-08-24T23:31:40.197Z,23.60
2022-08-24T23:34:07.933Z,23.60
2022-08-24T23:36:35.512Z,23.50
2022-08-24T23:39:03.768Z,23.60
2022-08-24T23:41:33.149Z,23.50
2022-08-24T23:44:01.910Z,23.60
2022-08-24T23:46:28.741Z,23.60
2022-08-24T23:49:02.829Z,23.50
2022-08-24T23:51:30.318Z,23.50
2022-08-24T23:53:57.086Z,23.60
2022-08-24T23:56:28.604Z,23.50
2022-08-24T23:59:13.899Z,23.50
